Time,TemperatureF,DewpointF,PressureIn,WindDirection,WindDirectionDegrees,WindSpeedMPH,WindSpeedGustMPH,Humidity,HourlyPrecipIn,Conditions,Clouds,dailyrainin,SolarRadiationWatts/m^2,SoftwareType,DateUTC
2013-09-17 00:11:00,62.0,35.0,-100.00,SW,224,8.0,20.0,36,0.00,,,0.00,0.000000,,2013-09-17 07:11:00,
2013-09-17 00:23:00,62.0,35.0,-100.00,SW,224,8.0,20.0,36,0.00,,,0.00,0.000000,,2013-09-17 07:23:00,
2013-09-17 00:32:00,62.0,35.0,-100.00,SW,224,8.0,20.0,36,0.00,,,0.00,0.000000,,2013-09-17 07:32:00,
2013-09-17 00:42:00,62.0,35.0,-100.00,SW,224,8.0,20.0,36,0.00,,,0.00,0.000000,,2013-09-17 07:42:00,
2013-09-17 01:12:00,59.0,33.0,-100.00,South,187,4.0,19.0,37,0.00,,,0.00,0.000000,,2013-09-17 08:12:00,
2013-09-17 01:22:00,59.0,33.0,-100.00,South,187,4.0,19.0,37,0.00,,,0.00,0.000000,,2013-09-17 08:22:00,
2013-09-17 01:31:00,59.0,33.0,-100.00,South,187,4.0,19.0,37,0.00,,,0.00,0.000000,,2013-09-17 08:31:00,
2013-09-17 01:42:00,59.0,33.0,-100.00,South,187,4.0,19.0,37,0.00,,,0.00,0.000000,,2013-09-17 08:42:00,
2013-09-17 02:12:00,59.0,31.0,-100.00,WSW,245,3.0,17.0,35,0.00,,,-99.99,0.000000,,2013-09-17 09:12:00,
2013-09-17 02:22:00,59.0,31.0,-100.00,WSW,245,3.0,17.0,35,0.00,,,-99.99,0.000000,,2013-09-17 09:22:00,
2013-09-17 02:33:00,59.0,31.0,-100.00,WSW,245,3.0,17.0,35,0.00,,,-99.99,0.000000,,2013-09-17 09:33:00,
2013-09-17 02:42:00,59.0,31.0,-100.00,WSW,245,3.0,17.0,35,0.00,,,-99.99,0.000000,,2013-09-17 09:42:00,
2013-09-17 03:12:00,58.0,31.0,-100.00,SW,220,6.0,16.0,36,0.00,,,0.00,0.000000,,2013-09-17 10:12:00,
2013-09-17 03:23:00,58.0,31.0,-100.00,SW,220,6.0,16.0,36,0.00,,,0.00,0.000000,,2013-09-17 10:23:00,
2013-09-17 03:32:00,58.0,31.0,-100.00,SW,220,6.0,16.0,36,0.00,,,0.00,0.000000,,2013-09-17 10:32:00,
2013-09-17 03:42:00,58.0,31.0,-100.00,SW,220,6.0,16.0,36,0.00,,,0.00,0.000000,,2013-09-17 10:42:00,
2013-09-17 04:11:00,60.0,32.0,-100.00,NE,50,6.0,18.0,35,0.00,,,0.00,0.000000,,2013-09-17 11:11:00,
2013-09-17 04:22:00,60.0,32.0,-100.00,NE,50,6.0,18.0,35,0.00,,,0.00,0.000000,,2013-09-17 11:22:00,
2013-09-17 04:33:00,60.0,32.0,-100.00,NE,50,6.0,18.0,35,0.00,,,0.00,0.000000,,2013-09-17 11:33:00,
2013-09-17 04:42:00,60.0,32.0,-100.00,NE,50,6.0,18.0,35,0.00,,,0.00,0.000000,,2013-09-17 11:42:00,
2013-09-17 05:12:00,58.0,31.0,-100.00,WSW,237,8.0,23.0,36,0.00,,,0.00,0.000000,,2013-09-17 12:12:00,
2013-09-17 05:21:00,58.0,31.0,-100.00,WSW,237,8.0,23.0,36,0.00,,,0.00,0.000000,,2013-09-17 12:21:00,
2013-09-17 05:32:00,58.0,31.0,-100.00,WSW,237,8.0,23.0,36,0.00,,,0.00,0.000000,,2013-09-17 12:32:00,
2013-09-17 05:42:00,58.0,31.0,-100.00,WSW,237,8.0,23.0,36,0.00,,,0.00,0.000000,,2013-09-17 12:42:00,
2013-09-17 06:11:00,59.0,35.0,-100.00,SW,215,11.0,24.0,40,0.00,,,0.00,0.000000,,2013-09-17 13:11:00,
2013-09-17 06:22:00,59.0,35.0,-100.00,SW,215,11.0,24.0,40,0.00,,,0.00,0.000000,,2013-09-17 13:22:00,
2013-09-17 06:32:00,59.0,35.0,-100.00,SW,215,11.0,24.0,40,0.00,,,0.00,0.000000,,2013-09-17 13:32:00,
2013-09-17 06:42:00,59.0,35.0,-100.00,SW,215,11.0,24.0,40,0.00,,,0.00,0.000000,,2013-09-17 13:42:00,
2013-09-17 07:11:00,57.0,36.0,-100.00,SW,221,13.0,29.0,46,0.00,,,0.00,0.000000,,2013-09-17 14:11:00,
2013-09-17 07:21:00,57.0,36.0,-100.00,SW,221,13.0,29.0,46,0.00,,,0.00,0.000000,,2013-09-17 14:21:00,
2013-09-17 07:32:00,57.0,36.0,-100.00,SW,221,13.0,29.0,46,0.00,,,0.00,0.000000,,2013-09-17 14:32:00,
2013-09-17 07:42:00,57.0,36.0,-100.00,SW,221,13.0,29.0,46,0.00,,,0.00,0.000000,,2013-09-17 14:42:00,
2013-09-17 08:11:00,59.0,40.0,-100.00,SW,216,8.0,29.0,49,0.00,,,0.00,61.000000,,2013-09-17 15:11:00,
2013-09-17 08:44:00,59.0,40.0,-100.00,SW,216,8.0,29.0,49,0.00,,,0.00,61.000000,,2013-09-17 15:44:00,
2013-09-17 09:13:00,61.0,39.0,-100.00,SSE,167,10.0,28.0,44,0.00,,,0.00,325.000000,,2013-09-17 16:13:00,
2013-09-17 09:23:00,61.0,39.0,-100.00,SSE,167,10.0,28.0,44,0.00,,,0.00,325.000000,,2013-09-17 16:23:00,
2013-09-17 09:32:00,61.0,39.0,-100.00,SSE,167,10.0,28.0,44,0.00,,,0.00,325.000000,,2013-09-17 16:32:00,
2013-09-17 09:42:00,61.0,39.0,-100.00,SSE,167,10.0,28.0,44,0.00,,,0.00,325.000000,,2013-09-17 16:42:00,
2013-09-17 10:12:00,66.0,39.0,-100.00,WSW,243,9.0,24.0,37,0.00,,,0.00,562.000000,,2013-09-17 17:12:00,
2013-09-17 10:23:00,66.0,39.0,-100.00,WSW,243,9.0,24.0,37,0.00,,,0.00,562.000000,,2013-09-17 17:23:00,
2013-09-17 10:34:00,66.0,39.0,-100.00,WSW,243,9.0,24.0,37,0.00,,,0.00,562.000000,,2013-09-17 17:34:00,
2013-09-17 10:43:00,66.0,39.0,-100.00,WSW,243,9.0,24.0,37,0.00,,,0.00,562.000000,,2013-09-17 17:43:00,
2013-09-17 11:12:00,66.0,30.0,-100.00,SW,222,12.0,26.0,26,0.00,,,0.00,765.000000,,2013-09-17 18:12:00,
2013-09-17 11:21:00,66.0,30.0,-100.00,SW,222,12.0,26.0,26,0.00,,,0.00,765.000000,,2013-09-17 18:21:00,
2013-09-17 11:32:00,66.0,30.0,-100.00,SW,222,12.0,26.0,26,0.00,,,0.00,765.000000,,2013-09-17 18:32:00,
2013-09-17 11:42:00,66.0,30.0,-100.00,SW,222,12.0,26.0,26,0.00,,,0.00,765.000000,,2013-09-17 18:42:00,
2013-09-17 12:11:00,68.0,32.0,-100.00,SE,146,14.0,32.0,26,0.00,,,0.00,906.000000,,2013-09-17 19:11:00,
2013-09-17 12:21:00,68.0,32.0,-100.00,SE,146,14.0,32.0,26,0.00,,,0.00,906.000000,,2013-09-17 19:21:00,
2013-09-17 12:32:00,68.0,32.0,-100.00,SE,146,14.0,32.0,26,0.00,,,0.00,906.000000,,2013-09-17 19:32:00,
2013-09-17 12:42:00,68.0,32.0,-100.00,SE,146,14.0,32.0,26,0.00,,,0.00,906.000000,,2013-09-17 19:42:00,
2013-09-17 13:11:00,69.0,31.0,-100.00,WNW,287,9.0,32.0,24,0.00,,,0.00,984.000000,,2013-09-17 20:11:00,
2013-09-17 13:22:00,69.0,31.0,-100.00,WNW,287,9.0,32.0,24,0.00,,,0.00,984.000000,,2013-09-17 20:22:00,
2013-09-17 13:32:00,69.0,31.0,-100.00,WNW,287,9.0,32.0,24,0.00,,,0.00,984.000000,,2013-09-17 20:32:00,
2013-09-17 13:42:00,69.0,31.0,-100.00,WNW,287,9.0,32.0,24,0.00,,,0.00,984.000000,,2013-09-17 20:42:00,
2013-09-17 14:12:00,70.0,28.0,-100.00,SW,221,13.0,34.0,21,0.00,,,0.00,990.000000,,2013-09-17 21:12:00,
2013-09-17 14:22:00,70.0,28.0,-100.00,SW,221,13.0,34.0,21,0.00,,,0.00,990.000000,,2013-09-17 21:22:00,
2013-09-17 14:34:00,70.0,28.0,-100.00,SW,221,13.0,34.0,21,0.00,,,0.00,990.000000,,2013-09-17 21:34:00,
2013-09-17 14:44:00,70.0,28.0,-100.00,SW,221,13.0,34.0,21,0.00,,,0.00,990.000000,,2013-09-17 21:44:00,
2013-09-17 15:13:00,67.0,23.0,-100.00,SW,225,16.0,34.0,19,0.00,,,0.00,935.000000,,2013-09-17 22:13:00,
2013-09-17 15:24:00,67.0,23.0,-100.00,SW,225,16.0,34.0,19,0.00,,,0.00,935.000000,,2013-09-17 22:24:00,
2013-09-17 15:33:00,67.0,23.0,-100.00,SW,225,16.0,34.0,19,0.00,,,0.00,935.000000,,2013-09-17 22:33:00,
2013-09-17 15:43:00,67.0,23.0,-100.00,SW,225,16.0,34.0,19,0.00,,,0.00,935.000000,,2013-09-17 22:43:00,
2013-09-17 16:12:00,70.0,20.0,-100.00,SW,226,10.0,35.0,15,0.00,,,0.00,813.000000,,2013-09-17 23:12:00,
2013-09-17 16:21:00,70.0,20.0,-100.00,SW,226,10.0,35.0,15,0.00,,,0.00,813.000000,,2013-09-17 23:21:00,
2013-09-17 16:34:00,70.0,20.0,-100.00,SW,226,10.0,35.0,15,0.00,,,0.00,813.000000,,2013-09-17 23:34:00,
2013-09-17 16:42:00,70.0,20.0,-100.00,SW,226,10.0,35.0,15,0.00,,,0.00,813.000000,,2013-09-17 23:42:00,
2013-09-17 17:11:00,67.0,19.0,-100.00,SW,215,11.0,29.0,16,0.00,,,0.00,629.000000,,2013-09-18 00:11:00,
2013-09-17 17:22:00,67.0,19.0,-100.00,SW,215,11.0,29.0,16,0.00,,,0.00,629.000000,,2013-09-18 00:22:00,
2013-09-17 17:32:00,67.0,19.0,-100.00,SW,215,11.0,29.0,16,0.00,,,0.00,629.000000,,2013-09-18 00:32:00,
2013-09-17 17:42:00,67.0,19.0,-100.00,SW,215,11.0,29.0,16,0.00,,,0.00,629.000000,,2013-09-18 00:42:00,
2013-09-17 18:11:00,64.0,18.0,-100.00,SSW,204,9.0,31.0,17,0.00,,,0.00,373.000000,,2013-09-18 01:11:00,
2013-09-17 18:21:00,64.0,18.0,-100.00,SSW,204,9.0,31.0,17,0.00,,,0.00,373.000000,,2013-09-18 01:21:00,
2013-09-17 18:32:00,64.0,18.0,-100.00,SSW,204,9.0,31.0,17,0.00,,,0.00,373.000000,,2013-09-18 01:32:00,
2013-09-17 18:42:00,64.0,18.0,-100.00,SSW,204,9.0,31.0,17,0.00,,,0.00,373.000000,,2013-09-18 01:42:00,
2013-09-17 19:11:00,59.0,18.0,-100.00,ENE,61,6.0,26.0,20,0.00,,,0.00,46.000000,,2013-09-18 02:11:00,
2013-09-17 19:22:00,59.0,18.0,-100.00,ENE,61,6.0,26.0,20,0.00,,,0.00,46.000000,,2013-09-18 02:22:00,
2013-09-17 19:32:00,59.0,18.0,-100.00,ENE,61,6.0,26.0,20,0.00,,,0.00,46.000000,,2013-09-18 02:32:00,
2013-09-17 19:43:00,59.0,18.0,-100.00,ENE,61,6.0,26.0,20,0.00,,,0.00,46.000000,,2013-09-18 02:43:00,
2013-09-17 20:12:00,55.0,21.0,-100.00,SSW,208,1.0,18.0,26,0.00,,,0.00,3.000000,,2013-09-18 03:12:00,
2013-09-17 20:23:00,55.0,21.0,-100.00,SSW,208,1.0,18.0,26,0.00,,,0.00,3.000000,,2013-09-18 03:23:00,
2013-09-17 20:35:00,55.0,21.0,-100.00,SSW,208,1.0,18.0,26,0.00,,,0.00,3.000000,,2013-09-18 03:35:00,
2013-09-17 20:44:00,55.0,21.0,-100.00,SSW,208,1.0,18.0,26,0.00,,,0.00,3.000000,,2013-09-18 03:44:00,
2013-09-17 21:14:00,55.0,26.0,-100.00,SW,226,5.0,12.0,33,0.00,,,0.00,0.000000,,2013-09-18 04:14:00,
2013-09-17 21:24:00,55.0,26.0,-100.00,SW,226,5.0,12.0,33,0.00,,,0.00,0.000000,,2013-09-18 04:24:00,
2013-09-17 21:33:00,55.0,26.0,-100.00,SW,226,5.0,12.0,33,0.00,,,0.00,0.000000,,2013-09-18 04:33:00,
2013-09-17 21:44:00,55.0,26.0,-100.00,SW,226,5.0,12.0,33,0.00,,,0.00,0.000000,,2013-09-18 04:44:00,
2013-09-17 22:13:00,52.0,27.0,-100.00,WSW,241,2.0,17.0,37,0.00,,,0.00,0.000000,,2013-09-18 05:13:00,
2013-09-17 22:23:00,52.0,27.0,-100.00,WSW,241,2.0,17.0,37,0.00,,,0.00,0.000000,,2013-09-18 05:23:00,
2013-09-17 22:33:00,52.0,27.0,-100.00,WSW,241,2.0,17.0,37,0.00,,,0.00,0.000000,,2013-09-18 05:33:00,
2013-09-17 22:42:00,52.0,27.0,-100.00,WSW,241,2.0,17.0,37,0.00,,,0.00,0.000000,,2013-09-18 05:42:00,
2013-09-17 23:12:00,46.0,24.0,-100.00,SE,129,0.0,7.0,42,0.00,,,0.00,0.000000,,2013-09-18 06:12:00,
2013-09-17 23:22:00,46.0,24.0,-100.00,SE,129,0.0,7.0,42,0.00,,,0.00,0.000000,,2013-09-18 06:22:00,
2013-09-17 23:33:00,46.0,24.0,-100.00,SE,129,0.0,7.0,42,0.00,,,0.00,0.000000,,2013-09-18 06:33:00,
2013-09-17 23:42:00,46.0,24.0,-100.00,SE,129,0.0,7.0,42,0.00,,,0.00,0.000000,,2013-09-18 06:42:00,